Time,TemperatureF,DewpointF,PressureIn,WindDirection,WindDirectionDegrees,WindSpeedMPH,WindSpeedGustMPH,Humidity,HourlyPrecipIn,Conditions,Clouds,dailyrainin,SoftwareType,DateUTC
2013-04-15 00:05:00,58.5,54.0,29.84,SW,214,1.0,2.0,84,0.00,,,0.00,weatherlink.com 1.10,2013-04-15 05:05:00,
2013-04-15 00:20:00,58.1,54.0,29.85,South,188,1.0,2.0,85,0.00,,,0.00,weatherlink.com 1.10,2013-04-15 05:20:00,
2013-04-15 00:35:00,57.9,54.0,29.86,SSW,197,1.0,1.0,86,0.00,,,0.00,weatherlink.com 1.10,2013-04-15 05:35:00,
2013-04-15 00:50:00,58.1,54.0,29.87,SSW,193,1.0,2.0,86,0.00,,,0.00,weatherlink.com 1.10,2013-04-15 05:50:00,
2013-04-15 01:05:00,58.4,54.0,29.87,ESE,114,0.0,1.0,85,0.00,,,0.00,weatherlink.com 1.10,2013-04-15 06:05:00,
2013-04-15 01:20:00,58.3,54.0,29.86,SE,146,1.0,1.0,86,0.00,,,0.00,weatherlink.com 1.10,2013-04-15 06:20:00,
2013-04-15 01:35:00,58.1,54.0,29.86,South,169,0.0,3.0,86,0.00,,,0.00,weatherlink.com 1.10,2013-04-15 06:35:00,
2013-04-15 01:50:00,57.8,54.0,29.86,SE,141,1.0,2.0,87,0.00,,,0.00,weatherlink.com 1.10,2013-04-15 06:50:00,
2013-04-15 02:05:00,57.7,54.0,29.85,SE,135,0.0,3.0,87,0.00,,,0.00,weatherlink.com 1.10,2013-04-15 07:05:00,
2013-04-15 02:51:00,56.8,54.0,29.85,SE,137,0.0,2.0,89,0.00,,,0.00,weatherlink.com 1.10,2013-04-15 07:51:00,
2013-04-15 03:06:00,56.6,54.0,29.85,East,92,1.0,4.0,90,0.00,,,0.00,weatherlink.com 1.10,2013-04-15 08:06:00,
2013-04-15 03:36:00,56.3,54.0,29.87,South,188,0.0,2.0,90,0.00,,,0.00,weatherlink.com 1.10,2013-04-15 08:36:00,
2013-04-15 03:51:00,56.4,54.0,29.86,SSE,158,1.0,1.0,91,0.00,,,0.00,weatherlink.com 1.10,2013-04-15 08:51:00,
2013-04-15 04:06:00,56.6,54.0,29.87,SE,131,0.0,1.0,91,0.00,,,0.00,weatherlink.com 1.10,2013-04-15 09:06:00,
2013-04-15 04:21:00,56.6,54.0,29.87,ESE,116,0.0,0.0,91,0.00,,,0.00,weatherlink.com 1.10,2013-04-15 09:21:00,
2013-04-15 04:36:00,56.2,54.0,29.87,ESE,115,0.0,0.0,91,0.00,,,0.00,weatherlink.com 1.10,2013-04-15 09:36:00,
2013-04-15 05:06:00,55.9,54.0,29.88,SE,139,0.0,0.0,92,0.00,,,0.00,weatherlink.com 1.10,2013-04-15 10:06:00,
2013-04-15 05:21:00,55.6,53.0,29.88,SE,139,0.0,0.0,92,0.00,,,0.00,weatherlink.com 1.10,2013-04-15 10:21:00,
2013-04-15 05:36:00,55.3,53.0,29.88,SE,139,0.0,0.0,93,0.00,,,0.00,weatherlink.com 1.10,2013-04-15 10:36:00,
2013-04-15 07:06:00,56.2,55.0,29.92,SSE,149,0.0,2.0,94,0.00,,,0.00,weatherlink.com 1.10,2013-04-15 12:06:00,
2013-04-15 08:06:00,58.1,56.0,29.93,South,169,1.0,2.0,93,0.00,,,0.00,weatherlink.com 1.10,2013-04-15 13:06:00,
2013-04-15 08:21:00,58.7,56.0,29.94,SSW,197,1.0,2.0,92,0.00,,,0.00,weatherlink.com 1.10,2013-04-15 13:21:00,
2013-04-15 08:36:00,59.6,57.0,29.94,ESE,106,2.0,2.0,91,0.00,,,0.00,weatherlink.com 1.10,2013-04-15 13:36:00,
2013-04-15 08:51:00,60.2,57.0,29.94,SSW,207,0.0,4.0,90,0.00,,,0.00,weatherlink.com 1.10,2013-04-15 13:51:00,
2013-04-15 09:06:00,60.8,58.0,29.94,SSW,194,1.0,3.0,89,0.00,,,0.00,weatherlink.com 1.10,2013-04-15 14:06:00,
2013-04-15 09:21:00,61.6,58.0,29.94,South,170,1.0,4.0,88,0.00,,,0.00,weatherlink.com 1.10,2013-04-15 14:21:00,
2013-04-15 09:36:00,62.5,59.0,29.94,South,189,1.0,3.0,87,0.00,,,0.00,weatherlink.com 1.10,2013-04-15 14:36:00,
2013-04-15 09:51:00,64.4,60.0,29.95,SE,145,0.0,2.0,84,0.00,,,0.00,weatherlink.com 1.10,2013-04-15 14:51:00,
2013-04-15 10:06:00,66.4,60.0,29.95,SSW,201,1.0,4.0,80,0.00,,,0.00,weatherlink.com 1.10,2013-04-15 15:06:00,
2013-04-15 10:36:00,69.4,61.0,29.95,SSE,153,2.0,4.0,74,0.00,,,0.00,weatherlink.com 1.10,2013-04-15 15:36:00,
2013-04-15 10:52:00,70.3,62.0,29.95,SSW,211,1.0,4.0,74,0.00,,,0.00,weatherlink.com 1.10,2013-04-15 15:52:00,
2013-04-15 11:07:00,72.1,62.0,29.95,SSW,199,1.0,4.0,70,0.00,,,0.00,weatherlink.com 1.10,2013-04-15 16:07:00,
2013-04-15 11:22:00,73.4,62.0,29.95,ENE,64,2.0,3.0,68,0.00,,,0.00,weatherlink.com 1.10,2013-04-15 16:22:00,
2013-04-15 11:37:00,74.3,63.0,29.95,South,173,2.0,4.0,68,0.00,,,0.00,weatherlink.com 1.10,2013-04-15 16:37:00,
2013-04-15 11:52:00,75.2,63.0,29.94,SSW,197,3.0,4.0,65,0.00,,,0.00,weatherlink.com 1.10,2013-04-15 16:52:00,
2013-04-15 12:07:00,75.9,63.0,29.94,SSW,210,2.0,7.0,64,0.00,,,0.00,weatherlink.com 1.10,2013-04-15 17:07:00,
2013-04-15 12:22:00,76.6,63.0,29.94,SSE,153,1.0,4.0,63,0.00,,,0.00,weatherlink.com 1.10,2013-04-15 17:22:00,
2013-04-15 12:37:00,77.0,62.0,29.93,SE,135,1.0,5.0,61,0.00,,,0.00,weatherlink.com 1.10,2013-04-15 17:37:00,
2013-04-15 12:52:00,78.0,63.0,29.93,South,179,1.0,3.0,61,0.00,,,0.00,weatherlink.com 1.10,2013-04-15 17:52:00,
2013-04-15 13:07:00,77.8,64.0,29.92,SSE,159,3.0,6.0,62,0.00,,,0.00,weatherlink.com 1.10,2013-04-15 18:07:00,
2013-04-15 13:22:00,77.3,63.0,29.92,SSE,152,2.0,4.0,62,0.00,,,0.00,weatherlink.com 1.10,2013-04-15 18:22:00,
2013-04-15 13:37:00,78.3,64.0,29.91,SSE,164,1.0,5.0,62,0.00,,,0.00,weatherlink.com 1.10,2013-04-15 18:37:00,
2013-04-15 13:52:00,78.6,63.0,29.91,SSW,207,0.0,4.0,60,0.00,,,0.00,weatherlink.com 1.10,2013-04-15 18:52:00,
2013-04-15 14:07:00,79.7,64.0,29.90,SE,131,2.0,3.0,58,0.00,,,0.00,weatherlink.com 1.10,2013-04-15 19:07:00,
2013-04-15 14:22:00,80.8,65.0,29.90,SSW,210,1.0,4.0,58,0.00,,,0.00,weatherlink.com 1.10,2013-04-15 19:22:00,
2013-04-15 14:37:00,81.0,64.0,29.89,SSE,165,2.0,4.0,57,0.00,,,0.00,weatherlink.com 1.10,2013-04-15 19:37:00,
2013-04-15 15:07:00,82.6,64.0,29.88,East,82,1.0,4.0,53,0.00,,,0.00,weatherlink.com 1.10,2013-04-15 20:07:00,
2013-04-15 15:22:00,83.4,63.0,29.87,South,176,2.0,4.0,50,0.00,,,0.00,weatherlink.com 1.10,2013-04-15 20:22:00,
2013-04-15 15:37:00,83.1,63.0,29.87,SSE,158,2.0,5.0,50,0.00,,,0.00,weatherlink.com 1.10,2013-04-15 20:37:00,
2013-04-15 15:52:00,83.3,62.0,29.87,SSE,148,3.0,5.0,48,0.00,,,0.00,weatherlink.com 1.10,2013-04-15 20:52:00,
2013-04-15 16:07:00,84.3,62.0,29.86,South,179,1.0,5.0,48,0.00,,,0.00,weatherlink.com 1.10,2013-04-15 21:07:00,
2013-04-15 16:22:00,84.3,62.0,29.86,SSE,158,2.0,5.0,48,0.00,,,0.00,weatherlink.com 1.10,2013-04-15 21:22:00,
2013-04-15 16:37:00,84.2,63.0,29.86,SSE,163,3.0,4.0,49,0.00,,,0.00,weatherlink.com 1.10,2013-04-15 21:37:00,
2013-04-15 16:52:00,85.1,63.0,29.86,SSE,160,1.0,4.0,47,0.00,,,0.00,weatherlink.com 1.10,2013-04-15 21:52:00,
2013-04-15 17:07:00,84.7,62.0,29.86,SE,141,0.0,5.0,47,0.00,,,0.00,weatherlink.com 1.10,2013-04-15 22:07:00,
2013-04-15 17:22:00,85.2,63.0,29.86,SSE,157,1.0,4.0,47,0.00,,,0.00,weatherlink.com 1.10,2013-04-15 22:22:00,
2013-04-15 17:37:00,85.0,62.0,29.86,South,184,1.0,4.0,46,0.00,,,0.00,weatherlink.com 1.10,2013-04-15 22:37:00,
2013-04-15 17:53:00,85.0,62.0,29.86,SSE,160,2.0,6.0,46,0.00,,,0.00,weatherlink.com 1.10,2013-04-15 22:53:00,
2013-04-15 18:08:00,84.3,62.0,29.86,SSW,193,1.0,5.0,47,0.00,,,0.00,weatherlink.com 1.10,2013-04-15 23:08:00,
2013-04-15 18:23:00,83.9,62.0,29.86,SSE,160,1.0,4.0,48,0.00,,,0.00,weatherlink.com 1.10,2013-04-15 23:23:00,
2013-04-15 18:53:00,82.1,62.0,29.86,SSE,157,1.0,4.0,50,0.00,,,0.00,weatherlink.com 1.10,2013-04-15 23:53:00,
2013-04-15 19:08:00,80.8,62.0,29.86,SSE,153,1.0,4.0,53,0.00,,,0.00,weatherlink.com 1.10,2013-04-16 00:08:00,
2013-04-15 19:23:00,79.4,63.0,29.87,SSW,200,0.0,3.0,58,0.00,,,0.00,weatherlink.com 1.10,2013-04-16 00:23:00,
2013-04-15 19:38:00,77.8,63.0,29.87,SE,129,1.0,3.0,61,0.00,,,0.00,weatherlink.com 1.10,2013-04-16 00:38:00,
2013-04-15 19:53:00,76.6,63.0,29.88,SSE,153,1.0,2.0,64,0.00,,,0.00,weatherlink.com 1.10,2013-04-16 00:53:00,
2013-04-15 20:08:00,75.7,63.0,29.88,SSE,148,0.0,2.0,65,0.00,,,0.00,weatherlink.com 1.10,2013-04-16 01:08:00,
2013-04-15 20:23:00,75.1,63.0,29.89,SSE,158,0.0,3.0,67,0.00,,,0.00,weatherlink.com 1.10,2013-04-16 01:23:00,
2013-04-15 20:38:00,74.3,63.0,29.89,SE,140,1.0,2.0,68,0.00,,,0.00,weatherlink.com 1.10,2013-04-16 01:38:00,
2013-04-15 20:53:00,73.7,63.0,29.90,SSE,157,1.0,4.0,69,0.00,,,0.00,weatherlink.com 1.10,2013-04-16 01:53:00,
2013-04-15 21:08:00,73.3,63.0,29.91,South,188,1.0,3.0,70,0.00,,,0.00,weatherlink.com 1.10,2013-04-16 02:08:00,
2013-04-15 21:23:00,72.8,63.0,29.91,SE,145,1.0,4.0,71,0.00,,,0.00,weatherlink.com 1.10,2013-04-16 02:23:00,
2013-04-15 21:38:00,72.4,63.0,29.92,South,189,2.0,3.0,72,0.00,,,0.00,weatherlink.com 1.10,2013-04-16 02:38:00,
2013-04-15 21:53:00,72.1,63.0,29.92,South,189,1.0,3.0,73,0.00,,,0.00,weatherlink.com 1.10,2013-04-16 02:53:00,
2013-04-15 22:08:00,71.8,63.0,29.93,SSE,153,1.0,4.0,74,0.00,,,0.00,weatherlink.com 1.10,2013-04-16 03:08:00,
2013-04-15 22:23:00,71.3,63.0,29.93,SSE,166,2.0,2.0,75,0.00,,,0.00,weatherlink.com 1.10,2013-04-16 03:23:00,
2013-04-15 22:38:00,71.0,63.0,29.93,SE,144,0.0,3.0,76,0.00,,,0.00,weatherlink.com 1.10,2013-04-16 03:38:00,
2013-04-15 22:53:00,70.7,63.0,29.93,SSE,150,1.0,3.0,77,0.00,,,0.00,weatherlink.com 1.10,2013-04-16 03:53:00,
2013-04-15 23:08:00,70.5,63.0,29.93,SSW,201,1.0,3.0,78,0.00,,,0.00,weatherlink.com 1.10,2013-04-16 04:08:00,
2013-04-15 23:23:00,70.3,64.0,29.94,SSE,152,1.0,3.0,79,0.00,,,0.00,weatherlink.com 1.10,2013-04-16 04:23:00,
2013-04-15 23:38:00,70.1,63.0,29.93,SSE,152,0.0,3.0,79,0.00,,,0.00,weatherlink.com 1.10,2013-04-16 04:38:00,
2013-04-15 23:53:00,69.9,64.0,29.93,SSE,163,0.0,2.0,80,0.00,,,0.00,weatherlink.com 1.10,2013-04-16 04:53:00,